sensor_id;sensor_type;location;lat;lon;timestamp;pressure;altitude;pressure_sealevel;temperature;humidity
48517;BME280;34310;51.904;4.256;2023-05-07T00:00:10;101679.09;;;19.76;61.20
48517;BME280;34310;51.904;4.256;2023-05-07T00:02:38;101686.13;;;19.77;61.17
48517;BME280;34310;51.904;4.256;2023-05-07T00:05:06;101690.47;;;19.76;61.03
48517;BME280;34310;51.904;4.256;2023-05-07T00:07:34;101685.22;;;19.76;60.98
48517;BME280;34310;51.904;4.256;2023-05-07T00:10:03;101693.91;;;19.75;60.90
48517;BME280;34310;51.904;4.256;2023-05-07T00:12:30;101695.69;;;19.76;61.18
48517;BME280;34310;51.904;4.256;2023-05-07T00:15:02;101685.16;;;19.75;61.12
48517;BME280;34310;51.904;4.256;2023-05-07T00:17:31;101689.50;;;19.74;61.12
48517;BME280;34310;51.904;4.256;2023-05-07T00:19:58;101682.47;;;19.73;60.95
48517;BME280;34310;51.904;4.256;2023-05-07T00:22:25;101685.97;;;19.74;60.99
48517;BME280;34310;51.904;4.256;2023-05-07T00:24:53;101673.69;;;19.73;61.10
48517;BME280;34310;51.904;4.256;2023-05-07T00:27:20;101679.84;;;19.73;61.02
48517;BME280;34310;51.904;4.256;2023-05-07T00:29:48;101676.31;;;19.73;60.85
48517;BME280;34310;51.904;4.256;2023-05-07T00:32:15;101671.00;;;19.71;60.97
48517;BME280;34310;51.904;4.256;2023-05-07T00:34:43;101678.88;;;19.71;61.05
48517;BME280;34310;51.904;4.256;2023-05-07T00:37:10;101671.00;;;19.71;61.09
48517;BME280;34310;51.904;4.256;2023-05-07T00:39:39;101674.47;;;19.70;60.86
48517;BME280;34310;51.904;4.256;2023-05-07T00:42:06;101675.28;;;19.69;60.84
48517;BME280;34310;51.904;4.256;2023-05-07T00:44:33;101664.81;;;19.69;61.02
48517;BME280;34310;51.904;4.256;2023-05-07T00:47:02;101669.16;;;19.69;60.79
48517;BME280;34310;51.904;4.256;2023-05-07T00:49:41;101668.25;;;19.68;60.98
48517;BME280;34310;51.904;4.256;2023-05-07T00:52:15;101664.75;;;19.68;60.99
48517;BME280;34310;51.904;4.256;2023-05-07T00:54:43;101676.13;;;19.68;61.06
48517;BME280;34310;51.904;4.256;2023-05-07T00:57:11;101672.53;;;19.66;61.16
48517;BME280;34310;51.904;4.256;2023-05-07T00:59:40;101666.34;;;19.66;61.10
48517;BME280;34310;51.904;4.256;2023-05-07T01:02:08;101659.44;;;19.66;60.96
48517;BME280;34310;51.904;4.256;2023-05-07T01:04:36;101665.47;;;19.65;61.09
48517;BME280;34310;51.904;4.256;2023-05-07T01:07:04;101665.47;;;19.65;60.80
48517;BME280;34310;51.904;4.256;2023-05-07T01:09:32;101666.28;;;19.64;60.90
48517;BME280;34310;51.904;4.256;2023-05-07T01:12:00;101655.81;;;19.64;61.03
48517;BME280;34310;51.904;4.256;2023-05-07T01:14:27;101658.44;;;19.64;60.90
48517;BME280;34310;51.904;4.256;2023-05-07T01:16:55;101649.59;;;19.62;60.75
48517;BME280;34310;51.904;4.256;2023-05-07T01:19:22;101652.22;;;19.62;60.82
48517;BME280;34310;51.904;4.256;2023-05-07T01:21:51;101645.19;;;19.61;61.01
48517;BME280;34310;51.904;4.256;2023-05-07T01:24:24;101645.19;;;19.61;60.83
48517;BME280;34310;51.904;4.256;2023-05-07T01:26:51;101641.66;;;19.61;60.82
48517;BME280;34310;51.904;4.256;2023-05-07T01:29:18;101642.56;;;19.61;60.91
48517;BME280;34310;51.904;4.256;2023-05-07T01:31:46;101642.56;;;19.61;60.98
48517;BME280;34310;51.904;4.256;2023-05-07T01:34:15;101647.75;;;19.60;60.92
48517;BME280;34310;51.904;4.256;2023-05-07T01:36:45;101636.34;;;19.59;60.90
48517;BME280;34310;51.904;4.256;2023-05-07T01:39:14;101646.00;;;19.60;61.07
48517;BME280;34310;51.904;4.256;2023-05-07T01:41:42;101652.06;;;19.59;61.11
48517;BME280;34310;51.904;4.256;2023-05-07T01:44:11;101647.66;;;19.58;60.96
48517;BME280;34310;51.904;4.256;2023-05-07T01:46:39;101643.31;;;19.59;61.13
48517;BME280;34310;51.904;4.256;2023-05-07T01:49:07;101648.50;;;19.57;60.90
48517;BME280;34310;51.904;4.256;2023-05-07T01:51:35;101642.34;;;19.57;61.05
48517;BME280;34310;51.904;4.256;2023-05-07T01:54:02;101639.75;;;19.57;60.83
48517;BME280;34310;51.904;4.256;2023-05-07T01:56:29;101644.91;;;19.55;61.14
48517;BME280;34310;51.904;4.256;2023-05-07T01:58:57;101637.94;;;19.56;60.78
48517;BME280;34310;51.904;4.256;2023-05-07T02:01:24;101643.19;;;19.56;60.93
48517;BME280;34310;51.904;4.256;2023-05-07T02:03:52;101636.16;;;19.55;60.88
48517;BME280;34310;51.904;4.256;2023-05-07T02:06:21;101638.78;;;19.55;61.03
48517;BME280;34310;51.904;4.256;2023-05-07T02:08:48;101641.38;;;19.55;60.80
48517;BME280;34310;51.904;4.256;2023-05-07T02:11:15;101644.72;;;19.52;61.03
48517;BME280;34310;51.904;4.256;2023-05-07T02:13:43;101643.00;;;19.53;60.95
48517;BME280;34310;51.904;4.256;2023-05-07T02:16:10;101641.22;;;19.52;60.92
48517;BME280;34310;51.904;4.256;2023-05-07T02:18:38;101645.56;;;19.51;60.85
48517;BME280;34310;51.904;4.256;2023-05-07T02:21:05;101640.31;;;19.51;60.87
48517;BME280;34310;51.904;4.256;2023-05-07T02:23:32;101642.94;;;19.51;60.96
48517;BME280;34310;51.904;4.256;2023-05-07T02:26:00;101649.00;;;19.50;60.84
48517;BME280;34310;51.904;4.256;2023-05-07T02:28:27;101645.47;;;19.49;60.85
48517;BME280;34310;51.904;4.256;2023-05-07T02:30:54;101650.72;;;19.49;60.96
48517;BME280;34310;51.904;4.256;2023-05-07T02:33:22;101643.75;;;19.50;60.97
48517;BME280;34310;51.904;4.256;2023-05-07T02:35:49;101646.31;;;19.48;60.86
48517;BME280;34310;51.904;4.256;2023-05-07T02:38:16;101643.69;;;19.48;60.87
48517;BME280;34310;51.904;4.256;2023-05-07T02:40:44;101648.94;;;19.48;60.70
48517;BME280;34310;51.904;4.256;2023-05-07T02:43:11;101644.50;;;19.47;60.87
48517;BME280;34310;51.904;4.256;2023-05-07T02:45:38;101647.13;;;19.47;61.02
48517;BME280;34310;51.904;4.256;2023-05-07T02:48:06;101646.25;;;19.47;60.96
48517;BME280;34310;51.904;4.256;2023-05-07T02:50:33;101643.63;;;19.47;61.06
48517;BME280;34310;51.904;4.256;2023-05-07T02:53:00;101653.19;;;19.46;61.02
48517;BME280;34310;51.904;4.256;2023-05-07T02:55:28;101645.28;;;19.45;61.04
48517;BME280;34310;51.904;4.256;2023-05-07T02:57:55;101656.63;;;19.45;60.86
48517;BME280;34310;51.904;4.256;2023-05-07T03:00:23;101653.13;;;19.45;61.10
48517;BME280;34310;51.904;4.256;2023-05-07T03:02:50;101651.41;;;19.45;61.02
48517;BME280;34310;51.904;4.256;2023-05-07T03:05:17;101648.72;;;19.44;60.86
48517;BME280;34310;51.904;4.256;2023-05-07T03:07:45;101653.06;;;19.43;61.11
48517;BME280;34310;51.904;4.256;2023-05-07T03:10:13;101655.69;;;19.43;61.11
48517;BME280;34310;51.904;4.256;2023-05-07T03:12:40;101654.78;;;19.43;60.88
48517;BME280;34310;51.904;4.256;2023-05-07T03:15:08;101656.56;;;19.44;61.04
48517;BME280;34310;51.904;4.256;2023-05-07T03:17:35;101646.91;;;19.43;60.94
48517;BME280;34310;51.904;4.256;2023-05-07T03:20:03;101645.19;;;19.43;60.98
48517;BME280;34310;51.904;4.256;2023-05-07T03:22:31;101643.41;;;19.42;60.88
48517;BME280;34310;51.904;4.256;2023-05-07T03:24:58;101634.59;;;19.40;60.98
48517;BME280;34310;51.904;4.256;2023-05-07T03:27:25;101637.28;;;19.42;61.04
48517;BME280;34310;51.904;4.256;2023-05-07T03:29:52;101635.47;;;19.41;61.11
48517;BME280;34310;51.904;4.256;2023-05-07T03:32:20;101648.56;;;19.41;60.98
48517;BME280;34310;51.904;4.256;2023-05-07T03:34:47;101643.34;;;19.41;61.00
48517;BME280;34310;51.904;4.256;2023-05-07T03:37:14;101638.94;;;19.40;60.86
48517;BME280;34310;51.904;4.256;2023-05-07T03:39:42;101641.53;;;19.40;61.06
48517;BME280;34310;51.904;4.256;2023-05-07T03:42:09;101648.50;;;19.39;60.83
48517;BME280;34310;51.904;4.256;2023-05-07T03:44:37;101646.78;;;19.40;61.01
48517;BME280;34310;51.904;4.256;2023-05-07T03:47:04;101643.25;;;19.39;60.94
48517;BME280;34310;51.904;4.256;2023-05-07T03:49:31;101651.03;;;19.38;60.88
48517;BME280;34310;51.904;4.256;2023-05-07T03:51:59;101648.44;;;19.38;60.85
48517;BME280;34310;51.904;4.256;2023-05-07T03:54:26;101656.28;;;19.38;61.02
48517;BME280;34310;51.904;4.256;2023-05-07T03:56:53;101657.19;;;19.38;60.87
48517;BME280;34310;51.904;4.256;2023-05-07T03:59:21;101658.00;;;19.37;60.85
48517;BME280;34310;51.904;4.256;2023-05-07T04:01:48;101656.19;;;19.36;60.87
48517;BME280;34310;51.904;4.256;2023-05-07T04:04:16;101664.94;;;19.37;60.95
48517;BME280;34310;51.904;4.256;2023-05-07T04:06:44;101674.50;;;19.36;60.97
48517;BME280;34310;51.904;4.256;2023-05-07T04:09:11;101671.88;;;19.36;60.95
48517;BME280;34310;51.904;4.256;2023-05-07T04:11:38;101671.00;;;19.36;60.88
48517;BME280;34310;51.904;4.256;2023-05-07T04:14:07;101670.09;;;19.35;60.83
48517;BME280;34310;51.904;4.256;2023-05-07T04:16:35;101673.59;;;19.36;60.87
48517;BME280;34310;51.904;4.256;2023-05-07T04:19:02;101667.47;;;19.35;60.98
48517;BME280;34310;51.904;4.256;2023-05-07T04:21:30;101664.78;;;19.34;60.91
48517;BME280;34310;51.904;4.256;2023-05-07T04:23:57;101669.19;;;19.35;60.92
48517;BME280;34310;51.904;4.256;2023-05-07T04:26:25;101671.75;;;19.33;61.07
48517;BME280;34310;51.904;4.256;2023-05-07T04:28:52;101676.16;;;19.34;61.06
48517;BME280;34310;51.904;4.256;2023-05-07T04:31:20;101672.66;;;19.34;60.92
48517;BME280;34310;51.904;4.256;2023-05-07T04:33:48;101673.47;;;19.33;60.92
48517;BME280;34310;51.904;4.256;2023-05-07T04:36:15;101676.97;;;19.33;61.00
48517;BME280;34310;51.904;4.256;2023-05-07T04:38:43;101675.19;;;19.32;60.86
48517;BME280;34310;51.904;4.256;2023-05-07T04:41:12;101674.28;;;19.32;60.91
48517;BME280;34310;51.904;4.256;2023-05-07T04:43:39;101666.44;;;19.32;60.92
48517;BME280;34310;51.904;4.256;2023-05-07T04:46:07;101670.78;;;19.31;60.93
48517;BME280;34310;51.904;4.256;2023-05-07T04:48:34;101671.66;;;19.32;61.05
48517;BME280;34310;51.904;4.256;2023-05-07T04:51:01;101669.88;;;19.31;61.06
48517;BME280;34310;51.904;4.256;2023-05-07T04:53:29;101675.13;;;19.31;60.80
48517;BME280;34310;51.904;4.256;2023-05-07T04:55:57;101672.50;;;19.31;61.03
48517;BME280;34310;51.904;4.256;2023-05-07T04:58:24;101677.72;;;19.31;61.07
48517;BME280;34310;51.904;4.256;2023-05-07T05:00:52;101676.84;;;19.30;60.93
48517;BME280;34310;51.904;4.256;2023-05-07T05:03:19;101677.66;;;19.29;60.98
48517;BME280;34310;51.904;4.256;2023-05-07T05:05:46;101672.44;;;19.29;61.03
48517;BME280;34310;51.904;4.256;2023-05-07T05:08:15;101675.03;;;19.29;60.78
48517;BME280;34310;51.904;4.256;2023-05-07T05:10:44;101682.91;;;19.29;61.03
48517;BME280;34310;51.904;4.256;2023-05-07T05:13:11;101686.34;;;19.28;60.90
48517;BME280;34310;51.904;4.256;2023-05-07T05:15:40;101692.47;;;19.29;61.14
48517;BME280;34310;51.904;4.256;2023-05-07T05:18:07;101690.69;;;19.28;60.74
48517;BME280;34310;51.904;4.256;2023-05-07T05:20:34;101684.53;;;19.27;60.89
48517;BME280;34310;51.904;4.256;2023-05-07T05:23:02;101692.41;;;19.27;61.09
48517;BME280;34310;51.904;4.256;2023-05-07T05:25:29;101689.78;;;19.27;60.96
48517;BME280;34310;51.904;4.256;2023-05-07T05:27:57;101695.84;;;19.26;61.00
48517;BME280;34310;51.904;4.256;2023-05-07T05:30:24;101689.72;;;19.26;60.84
48517;BME280;34310;51.904;4.256;2023-05-07T05:32:51;101696.75;;;19.27;61.00
48517;BME280;34310;51.904;4.256;2023-05-07T05:35:19;101698.47;;;19.26;60.89
48517;BME280;34310;51.904;4.256;2023-05-07T05:37:46;101701.91;;;19.25;60.96
48517;BME280;34310;51.904;4.256;2023-05-07T05:40:13;101700.19;;;19.26;61.15
48517;BME280;34310;51.904;4.256;2023-05-07T05:42:41;101702.81;;;19.26;61.13
48517;BME280;34310;51.904;4.256;2023-05-07T05:45:08;101704.53;;;19.25;61.16
48517;BME280;34310;51.904;4.256;2023-05-07T05:47:36;101705.34;;;19.24;61.04
48517;BME280;34310;51.904;4.256;2023-05-07T05:50:05;101713.19;;;19.24;60.90
48517;BME280;34310;51.904;4.256;2023-05-07T05:52:33;101722.78;;;19.24;60.98
48517;BME280;34310;51.904;4.256;2023-05-07T05:55:00;101717.53;;;19.24;61.10
48517;BME280;34310;51.904;4.256;2023-05-07T05:57:27;101714.09;;;19.25;61.20
48517;BME280;34310;51.904;4.256;2023-05-07T05:59:55;101713.19;;;19.24;60.84
48517;BME280;34310;51.904;4.256;2023-05-07T06:02:22;101712.31;;;19.24;61.10
48517;BME280;34310;51.904;4.256;2023-05-07T06:04:50;101701.81;;;19.24;61.10
48517;BME280;34310;51.904;4.256;2023-05-07T06:07:17;101717.53;;;19.24;61.16
48517;BME280;34310;51.904;4.256;2023-05-07T06:09:44;101720.16;;;19.24;61.28
48517;BME280;34310;51.904;4.256;2023-05-07T06:12:12;101721.88;;;19.23;61.17
48517;BME280;34310;51.904;4.256;2023-05-07T06:14:39;101719.25;;;19.23;61.06
48517;BME280;34310;51.904;4.256;2023-05-07T06:17:07;101717.53;;;19.24;61.15
48517;BME280;34310;51.904;4.256;2023-05-07T06:19:35;101708.78;;;19.23;61.39
48517;BME280;34310;51.904;4.256;2023-05-07T06:22:02;101713.19;;;19.24;61.13
48517;BME280;34310;51.904;4.256;2023-05-07T06:24:30;101711.41;;;19.23;61.34
48517;BME280;34310;51.904;4.256;2023-05-07T06:26:57;101715.81;;;19.24;61.42
48517;BME280;34310;51.904;4.256;2023-05-07T06:29:25;101713.19;;;19.24;61.35
48517;BME280;34310;51.904;4.256;2023-05-07T06:31:56;101714.91;;;19.24;61.31
48517;BME280;34310;51.904;4.256;2023-05-07T06:34:23;101714.91;;;19.24;61.32
48517;BME280;34310;51.904;4.256;2023-05-07T06:36:50;101707.13;;;19.25;61.17
48517;BME280;34310;51.904;4.256;2023-05-07T06:39:18;101715.81;;;19.24;61.16
48517;BME280;34310;51.904;4.256;2023-05-07T06:41:45;101713.28;;;19.26;61.35
48517;BME280;34310;51.904;4.256;2023-05-07T06:44:12;101710.56;;;19.24;61.36
48517;BME280;34310;51.904;4.256;2023-05-07T06:46:39;101718.50;;;19.26;61.28
48517;BME280;34310;51.904;4.256;2023-05-07T06:49:07;101727.19;;;19.25;61.17
48517;BME280;34310;51.904;4.256;2023-05-07T06:51:34;101730.78;;;19.27;61.31
48517;BME280;34310;51.904;4.256;2023-05-07T06:54:02;101728.09;;;19.25;61.38
48517;BME280;34310;51.904;4.256;2023-05-07T06:56:32;101725.47;;;19.25;61.35
48517;BME280;34310;51.904;4.256;2023-05-07T06:59:01;101728.97;;;19.26;61.33
48517;BME280;34310;51.904;4.256;2023-05-07T07:01:28;101726.44;;;19.27;61.43
48517;BME280;34310;51.904;4.256;2023-05-07T07:03:56;101725.53;;;19.27;61.48
48517;BME280;34310;51.904;4.256;2023-05-07T07:06:23;101730.78;;;19.27;61.43
48517;BME280;34310;51.904;4.256;2023-05-07T07:08:50;101720.31;;;19.27;61.31
48517;BME280;34310;51.904;4.256;2023-05-07T07:11:18;101733.41;;;19.27;61.17
48517;BME280;34310;51.904;4.256;2023-05-07T07:13:45;101738.56;;;19.25;61.46
48517;BME280;34310;51.904;4.256;2023-05-07T07:16:12;101736.00;;;19.27;61.58
48517;BME280;34310;51.904;4.256;2023-05-07T07:18:40;101738.63;;;19.27;61.36
48517;BME280;34310;51.904;4.256;2023-05-07T07:21:07;101736.09;;;19.28;61.48
48517;BME280;34310;51.904;4.256;2023-05-07T07:23:35;101738.78;;;19.30;61.29
48517;BME280;34310;51.904;4.256;2023-05-07T07:26:02;101740.50;;;19.29;61.40
48517;BME280;34310;51.904;4.256;2023-05-07T07:28:29;101735.25;;;19.29;61.43
48517;BME280;34310;51.904;4.256;2023-05-07T07:30:57;101737.97;;;19.31;61.32
48517;BME280;34310;51.904;4.256;2023-05-07T07:33:24;101741.47;;;19.31;61.41
48517;BME280;34310;51.904;4.256;2023-05-07T07:35:51;101739.75;;;19.32;61.51
48517;BME280;34310;51.904;4.256;2023-05-07T07:38:19;101740.66;;;19.32;61.38
48517;BME280;34310;51.904;4.256;2023-05-07T07:40:48;101738.94;;;19.33;61.42
48517;BME280;34310;51.904;4.256;2023-05-07T07:43:15;101742.44;;;19.33;61.62
48517;BME280;34310;51.904;4.256;2023-05-07T07:45:42;101731.97;;;19.33;61.59
48517;BME280;34310;51.904;4.256;2023-05-07T07:48:10;101739.91;;;19.35;61.71
48517;BME280;34310;51.904;4.256;2023-05-07T07:50:38;101732.03;;;19.35;61.64
48517;BME280;34310;51.904;4.256;2023-05-07T07:53:12;101736.47;;;19.36;61.68
48517;BME280;34310;51.904;4.256;2023-05-07T07:55:40;101734.75;;;19.36;61.59
48517;BME280;34310;51.904;4.256;2023-05-07T07:58:07;101740.88;;;19.37;61.64
48517;BME280;34310;51.904;4.256;2023-05-07T08:00:35;101732.13;;;19.36;61.73
48517;BME280;34310;51.904;4.256;2023-05-07T08:03:02;101733.00;;;19.37;61.65
48517;BME280;34310;51.904;4.256;2023-05-07T08:05:30;101749.72;;;19.39;61.67
48517;BME280;34310;51.904;4.256;2023-05-07T08:07:57;101742.78;;;19.39;61.70
48517;BME280;34310;51.904;4.256;2023-05-07T08:10:25;101741.94;;;19.40;61.85
48517;BME280;34310;51.904;4.256;2023-05-07T08:12:53;101750.72;;;19.41;61.92
48517;BME280;34310;51.904;4.256;2023-05-07T08:15:20;101747.19;;;19.40;61.56
48517;BME280;34310;51.904;4.256;2023-05-07T08:17:47;101751.59;;;19.41;61.86
48517;BME280;34310;51.904;4.256;2023-05-07T08:20:15;101755.13;;;19.42;61.75
48517;BME280;34310;51.904;4.256;2023-05-07T08:22:42;101758.63;;;19.42;61.90
48517;BME280;34310;51.904;4.256;2023-05-07T08:25:10;101760.44;;;19.43;61.94
48517;BME280;34310;51.904;4.256;2023-05-07T08:27:37;101764.78;;;19.43;61.75
48517;BME280;34310;51.904;4.256;2023-05-07T08:30:05;101763.94;;;19.44;61.90
48517;BME280;34310;51.904;4.256;2023-05-07T08:32:32;101777.13;;;19.45;62.03
48517;BME280;34310;51.904;4.256;2023-05-07T08:35:00;101766.63;;;19.45;61.83
48517;BME280;34310;51.904;4.256;2023-05-07T08:37:27;101769.25;;;19.45;61.88
48517;BME280;34310;51.904;4.256;2023-05-07T08:39:55;101777.19;;;19.47;61.77
48517;BME280;34310;51.904;4.256;2023-05-07T08:42:24;101771.97;;;19.47;61.81
48517;BME280;34310;51.904;4.256;2023-05-07T08:44:52;101779.00;;;19.48;61.83
48517;BME280;34310;51.904;4.256;2023-05-07T08:47:23;101773.75;;;19.48;62.05
48517;BME280;34310;51.904;4.256;2023-05-07T08:49:56;101774.66;;;19.48;62.06
48517;BME280;34310;51.904;4.256;2023-05-07T08:52:23;101772.94;;;19.49;61.94
48517;BME280;34310;51.904;4.256;2023-05-07T08:54:50;101777.34;;;19.50;61.81
48517;BME280;34310;51.904;4.256;2023-05-07T08:57:17;101775.53;;;19.49;61.94
48517;BME280;34310;51.904;4.256;2023-05-07T08:59:47;101775.63;;;19.50;61.79
48517;BME280;34310;51.904;4.256;2023-05-07T09:02:14;101780.94;;;19.52;61.82
48517;BME280;34310;51.904;4.256;2023-05-07T09:04:42;101784.38;;;19.51;61.83
48517;BME280;34310;51.904;4.256;2023-05-07T09:07:10;101785.28;;;19.52;61.99
48517;BME280;34310;51.904;4.256;2023-05-07T09:09:38;101781.84;;;19.53;61.70
48517;BME280;34310;51.904;4.256;2023-05-07T09:12:05;101786.28;;;19.54;61.81
48517;BME280;34310;51.904;4.256;2023-05-07T09:14:33;101789.78;;;19.54;61.85
48517;BME280;34310;51.904;4.256;2023-05-07T09:17:00;101793.31;;;19.55;61.72
48517;BME280;34310;51.904;4.256;2023-05-07T09:19:28;101791.59;;;19.55;61.93
48517;BME280;34310;51.904;4.256;2023-05-07T09:22:02;101795.13;;;19.56;61.69
48517;BME280;34310;51.904;4.256;2023-05-07T09:24:30;101794.28;;;19.57;61.67
48517;BME280;34310;51.904;4.256;2023-05-07T09:27:02;101796.09;;;19.58;61.73
48517;BME280;34310;51.904;4.256;2023-05-07T09:29:30;101791.75;;;19.58;61.60
48517;BME280;34310;51.904;4.256;2023-05-07T09:32:03;101795.19;;;19.57;61.71
48517;BME280;34310;51.904;4.256;2023-05-07T09:34:32;101791.81;;;19.60;61.59
48517;BME280;34310;51.904;4.256;2023-05-07T09:37:01;101790.91;;;19.59;61.76
48517;BME280;34310;51.904;4.256;2023-05-07T09:39:43;101788.31;;;19.59;61.59
48517;BME280;34310;51.904;4.256;2023-05-07T09:42:11;101790.03;;;19.59;61.99
48517;BME280;34310;51.904;4.256;2023-05-07T09:44:39;101791.81;;;19.60;61.74
48517;BME280;34310;51.904;4.256;2023-05-07T09:47:07;101797.94;;;19.60;61.66
48517;BME280;34310;51.904;4.256;2023-05-07T09:49:37;101800.66;;;19.62;62.05
48517;BME280;34310;51.904;4.256;2023-05-07T09:52:06;101801.63;;;19.64;61.75
48517;BME280;34310;51.904;4.256;2023-05-07T09:54:36;101798.09;;;19.63;61.80
48517;BME280;34310;51.904;4.256;2023-05-07T09:57:08;101799.00;;;19.64;61.70
48517;BME280;34310;51.904;4.256;2023-05-07T09:59:37;101802.59;;;19.66;61.75
48517;BME280;34310;51.904;4.256;2023-05-07T10:02:05;101799.97;;;19.66;61.70
48517;BME280;34310;51.904;4.256;2023-05-07T10:04:34;101794.72;;;19.66;61.76
48517;BME280;34310;51.904;4.256;2023-05-07T10:07:04;101799.19;;;19.67;61.64
48517;BME280;34310;51.904;4.256;2023-05-07T10:09:32;101790.50;;;19.68;61.67
48517;BME280;34310;51.904;4.256;2023-05-07T10:12:00;101799.25;;;19.68;61.83
48517;BME280;34310;51.904;4.256;2023-05-07T10:14:28;101793.19;;;19.69;61.63
48517;BME280;34310;51.904;4.256;2023-05-07T10:16:56;101794.16;;;19.71;61.72
48517;BME280;34310;51.904;4.256;2023-05-07T10:19:24;101799.41;;;19.71;61.65
48517;BME280;34310;51.904;4.256;2023-05-07T10:21:55;101795.06;;;19.72;61.70
48517;BME280;34310;51.904;4.256;2023-05-07T10:24:33;101793.34;;;19.72;61.76
48517;BME280;34310;51.904;4.256;2023-05-07T10:27:12;101800.38;;;19.73;61.91
48517;BME280;34310;51.904;4.256;2023-05-07T10:32:51;101799.63;;;19.76;61.80
48517;BME280;34310;51.904;4.256;2023-05-07T10:35:26;101791.75;;;19.76;61.82
48517;BME280;34310;51.904;4.256;2023-05-07T10:37:56;101790.84;;;19.75;61.81
48517;BME280;34310;51.904;4.256;2023-05-07T10:40:23;101798.78;;;19.77;61.66
48517;BME280;34310;51.904;4.256;2023-05-07T10:42:59;101808.53;;;19.79;62.03
48517;BME280;34310;51.904;4.256;2023-05-07T10:45:28;101812.94;;;19.80;61.67
48517;BME280;34310;51.904;4.256;2023-05-07T10:48:08;101812.03;;;19.80;61.72
48517;BME280;34310;51.904;4.256;2023-05-07T10:51:19;101818.25;;;19.82;61.79
48517;BME280;34310;51.904;4.256;2023-05-07T10:53:47;101813.91;;;19.83;61.90
48517;BME280;34310;51.904;4.256;2023-05-07T10:58:45;101819.22;;;19.84;61.92
48517;BME280;34310;51.904;4.256;2023-05-07T11:01:13;101815.78;;;19.85;62.05
48517;BME280;34310;51.904;4.256;2023-05-07T11:04:14;101822.88;;;19.88;61.79
48517;BME280;34310;51.904;4.256;2023-05-07T11:06:43;101812.41;;;19.88;61.84
48517;BME280;34310;51.904;4.256;2023-05-07T11:15:12;101823.84;;;19.90;62.05
48517;BME280;34310;51.904;4.256;2023-05-07T11:17:58;101816.00;;;19.90;62.19
48517;BME280;34310;51.904;4.256;2023-05-07T11:28:32;101821.38;;;19.93;62.12
48517;BME280;34310;51.904;4.256;2023-05-07T11:31:04;101816.16;;;19.93;62.24
48517;BME280;34310;51.904;4.256;2023-05-07T11:33:32;101822.28;;;19.93;62.00
48517;BME280;34310;51.904;4.256;2023-05-07T11:36:00;101817.94;;;19.94;62.16
48517;BME280;34310;51.904;4.256;2023-05-07T11:38:29;101812.81;;;19.95;62.26
48517;BME280;34310;51.904;4.256;2023-05-07T11:40:59;101821.56;;;19.96;62.08
48517;BME280;34310;51.904;4.256;2023-05-07T11:43:32;101824.19;;;19.96;61.95
48517;BME280;34310;51.904;4.256;2023-05-07T11:46:12;101825.16;;;19.98;61.99
48517;BME280;34310;51.904;4.256;2023-05-07T11:48:41;101826.06;;;19.98;61.98
48517;BME280;34310;51.904;4.256;2023-05-07T11:51:10;101828.69;;;19.98;61.87
48517;BME280;34310;51.904;4.256;2023-05-07T11:53:41;101828.75;;;20.00;61.85
48517;BME280;34310;51.904;4.256;2023-05-07T11:56:10;101832.25;;;20.00;61.90
48517;BME280;34310;51.904;4.256;2023-05-07T11:58:39;101838.41;;;20.01;62.14
48517;BME280;34310;51.904;4.256;2023-05-07T12:01:08;101836.69;;;20.01;62.11
48517;BME280;34310;51.904;4.256;2023-05-07T12:03:43;101841.09;;;20.02;62.13
48517;BME280;34310;51.904;4.256;2023-05-07T12:06:13;101841.16;;;20.04;62.05
48517;BME280;34310;51.904;4.256;2023-05-07T12:08:41;101845.59;;;20.05;62.15
48517;BME280;34310;51.904;4.256;2023-05-07T12:11:23;101838.63;;;20.05;62.04
48517;BME280;34310;51.904;4.256;2023-05-07T12:13:51;101846.56;;;20.07;61.96
48517;BME280;34310;51.904;4.256;2023-05-07T12:16:19;101848.34;;;20.08;62.10
48517;BME280;34310;51.904;4.256;2023-05-07T12:18:47;101844.00;;;20.08;62.05
48517;BME280;34310;51.904;4.256;2023-05-07T12:21:15;101843.19;;;20.09;62.33
48517;BME280;34310;51.904;4.256;2023-05-07T12:23:44;101844.16;;;20.11;62.41
48517;BME280;34310;51.904;4.256;2023-05-07T12:26:12;101847.75;;;20.14;62.30
48517;BME280;34310;51.904;4.256;2023-05-07T12:28:39;101846.03;;;20.14;62.31
48517;BME280;34310;51.904;4.256;2023-05-07T12:31:07;101849.41;;;20.11;63.01
48517;BME280;34310;51.904;4.256;2023-05-07T12:33:35;101846.03;;;20.14;62.83
48517;BME280;34310;51.904;4.256;2023-05-07T12:36:05;101847.81;;;20.15;62.82
48517;BME280;34310;51.904;4.256;2023-05-07T12:38:38;101851.41;;;20.17;62.68
48517;BME280;34310;51.904;4.256;2023-05-07T12:43:50;101852.31;;;20.18;63.07
48517;BME280;34310;51.904;4.256;2023-05-07T12:46:23;101855.16;;;20.22;63.19
48517;BME280;34310;51.904;4.256;2023-05-07T12:48:50;101856.03;;;20.23;62.97
48517;BME280;34310;51.904;4.256;2023-05-07T12:51:19;101857.03;;;20.25;63.18
48517;BME280;34310;51.904;4.256;2023-05-07T12:53:47;101860.63;;;20.27;63.33
48517;BME280;34310;51.904;4.256;2023-05-07T12:56:16;101863.34;;;20.28;62.94
48517;BME280;34310;51.904;4.256;2023-05-07T12:58:43;101872.09;;;20.29;63.30
48517;BME280;34310;51.904;4.256;2023-05-07T13:01:11;101868.72;;;20.31;63.27
48517;BME280;34310;51.904;4.256;2023-05-07T13:03:48;101869.63;;;20.32;63.32
48517;BME280;34310;51.904;4.256;2023-05-07T13:06:16;101868.78;;;20.33;62.96
48517;BME280;34310;51.904;4.256;2023-05-07T13:08:43;101860.09;;;20.34;63.25
48517;BME280;34310;51.904;4.256;2023-05-07T13:11:12;101863.69;;;20.36;63.10
48517;BME280;34310;51.904;4.256;2023-05-07T13:13:41;101862.88;;;20.37;63.31
48517;BME280;34310;51.904;4.256;2023-05-07T13:16:10;101868.28;;;20.40;63.35
48517;BME280;34310;51.904;4.256;2023-05-07T13:18:39;101864.84;;;20.41;63.08